createdAt,value
2019-04-28T00:00:48.504Z,14.00
2019-04-28T00:01:48.425Z,14.30
2019-04-28T00:02:48.413Z,13.70
2019-04-28T00:03:48.429Z,14.40
2019-04-28T00:04:48.416Z,13.70
2019-04-28T00:05:48.393Z,13.60
2019-04-28T00:06:48.375Z,13.90
2019-04-28T00:07:48.352Z,13.70
2019-04-28T00:08:48.364Z,13.70
2019-04-28T00:09:48.335Z,13.40
2019-04-28T00:10:48.345Z,13.10
2019-04-28T00:11:48.337Z,13.50
2019-04-28T00:12:48.322Z,13.40
2019-04-28T00:13:48.312Z,13.10
2019-04-28T00:14:48.284Z,13.20
2019-04-28T00:15:48.280Z,13.20
2019-04-28T00:16:48.263Z,13.60
2019-04-28T00:17:48.267Z,12.80
2019-04-28T00:18:48.265Z,13.00
2019-04-28T00:19:48.245Z,13.40
2019-04-28T00:20:48.235Z,13.60
2019-04-28T00:21:48.218Z,13.70
2019-04-28T00:22:48.201Z,13.40
2019-04-28T00:23:48.225Z,13.50
2019-04-28T00:24:48.262Z,13.40
2019-04-28T00:25:48.162Z,13.90
2019-04-28T00:26:48.184Z,13.70
2019-04-28T00:27:48.162Z,13.30
2019-04-28T00:28:48.155Z,13.40
2019-04-28T00:29:48.142Z,13.80
2019-04-28T00:30:48.115Z,13.80
2019-04-28T00:31:52.643Z,13.40
2019-04-28T00:32:48.082Z,13.30
2019-04-28T00:33:48.083Z,13.30
2019-04-28T00:34:48.075Z,12.40
2019-04-28T00:35:48.074Z,13.40
2019-04-28T00:36:48.075Z,13.00
2019-04-28T00:37:48.047Z,12.70
2019-04-28T00:38:48.063Z,12.90
2019-04-28T00:39:48.021Z,12.50
2019-04-28T00:40:47.999Z,12.70
2019-04-28T00:41:48.011Z,12.70
2019-04-28T00:42:47.984Z,12.40
2019-04-28T00:43:47.982Z,11.90
2019-04-28T00:44:47.976Z,12.70
2019-04-28T00:45:47.963Z,11.70
2019-04-28T00:46:47.971Z,12.40
2019-04-28T00:47:47.931Z,12.40
2019-04-28T00:48:47.931Z,12.20
2019-04-28T00:49:48.006Z,11.90
2019-04-28T00:50:47.923Z,12.00
2019-04-28T00:51:47.893Z,12.60
2019-04-28T00:52:47.870Z,11.60
2019-04-28T00:53:47.873Z,12.20
2019-04-28T00:54:47.872Z,12.50
2019-04-28T00:55:47.862Z,12.00
2019-04-28T00:56:47.850Z,11.50
2019-04-28T00:57:47.821Z,12.00
2019-04-28T00:58:47.809Z,12.40
2019-04-28T00:59:55.120Z,12.20
2019-04-28T01:00:48.790Z,12.90
2019-04-28T01:01:47.783Z,12.40
2019-04-28T01:02:47.785Z,11.50
2019-04-28T01:03:47.759Z,11.70
2019-04-28T01:04:47.751Z,11.10
2019-04-28T01:05:47.751Z,11.40
2019-04-28T01:06:47.749Z,11.10
2019-04-28T01:07:47.721Z,11.90
2019-04-28T01:08:47.710Z,11.50
2019-04-28T01:09:47.689Z,11.30
2019-04-28T01:10:47.670Z,11.20
2019-04-28T01:11:47.669Z,11.90
2019-04-28T01:12:47.682Z,11.30
2019-04-28T01:13:47.649Z,11.80
2019-04-28T01:14:49.426Z,11.60
2019-04-28T01:15:49.540Z,11.30
2019-04-28T01:16:47.631Z,11.40
2019-04-28T01:17:49.579Z,11.50
2019-04-28T01:18:47.596Z,11.50
2019-04-28T01:19:47.589Z,11.50
2019-04-28T01:20:49.504Z,11.70
2019-04-28T01:21:47.570Z,11.80
2019-04-28T01:22:49.583Z,11.20
2019-04-28T01:23:47.591Z,11.80
2019-04-28T01:24:49.562Z,12.30
2019-04-28T01:25:47.529Z,11.70
2019-04-28T01:26:47.510Z,11.10
2019-04-28T01:27:47.500Z,11.90
2019-04-28T01:28:47.488Z,11.40
2019-04-28T01:29:47.479Z,11.60
2019-04-28T01:30:47.467Z,11.10
2019-04-28T01:31:49.330Z,10.90
2019-04-28T01:32:47.473Z,11.30
2019-04-28T01:33:47.450Z,11.40
2019-04-28T01:34:47.426Z,11.00
2019-04-28T01:35:49.329Z,10.60
2019-04-28T01:36:47.420Z,11.40
2019-04-28T01:37:47.402Z,10.50
2019-04-28T01:38:47.409Z,10.50
2019-04-28T01:39:47.369Z,10.80
2019-04-28T01:40:47.364Z,10.10
2019-04-28T01:41:47.352Z,10.40
2019-04-28T01:42:47.337Z,10.20
2019-04-28T01:43:47.348Z,9.80
2019-04-28T01:44:47.338Z,10.10
2019-04-28T01:45:47.330Z,9.70
2019-04-28T01:46:47.300Z,10.30
2019-04-28T01:47:47.278Z,9.60
2019-04-28T01:48:47.298Z,10.00
2019-04-28T01:49:47.289Z,9.40
2019-04-28T01:50:47.259Z,9.50
2019-04-28T01:51:47.250Z,8.70
2019-04-28T01:52:47.224Z,9.30
2019-04-28T01:53:47.225Z,8.90
2019-04-28T01:54:47.217Z,9.60
2019-04-28T01:55:47.248Z,9.30
2019-04-28T01:56:47.187Z,8.80
2019-04-28T01:57:47.170Z,8.40
2019-04-28T01:58:47.169Z,9.10
2019-04-28T01:59:47.169Z,9.00
2019-04-28T02:00:47.148Z,8.90
2019-04-28T02:01:47.157Z,8.30
2019-04-28T02:02:47.116Z,8.60
2019-04-28T02:03:47.114Z,8.70
2019-04-28T02:04:47.109Z,8.50
2019-04-28T02:05:47.097Z,7.90
2019-04-28T02:06:47.098Z,8.20
2019-04-28T02:07:47.065Z,7.90
2019-04-28T02:08:47.090Z,8.00
2019-04-28T02:09:47.064Z,8.00
2019-04-28T02:10:47.034Z,7.50
2019-04-28T02:11:47.042Z,8.10
2019-04-28T02:12:47.028Z,8.70
2019-04-28T02:13:47.007Z,8.10
2019-04-28T02:14:47.027Z,8.50
2019-04-28T02:15:46.987Z,8.00
2019-04-28T02:16:46.989Z,8.30
2019-04-28T02:17:46.965Z,7.20
2019-04-28T02:18:46.975Z,7.60
2019-04-28T02:19:46.955Z,8.40
2019-04-28T02:20:46.943Z,8.10
2019-04-28T02:21:46.919Z,7.30
2019-04-28T02:22:46.928Z,8.00
2019-04-28T02:23:46.887Z,7.20
2019-04-28T02:24:46.894Z,7.00
2019-04-28T02:25:46.887Z,7.00
2019-04-28T02:26:46.855Z,6.70
2019-04-28T02:27:46.867Z,6.80
2019-04-28T02:28:46.844Z,6.60
2019-04-28T02:29:46.833Z,6.90
2019-04-28T02:30:50.320Z,6.80
2019-04-28T02:31:47.817Z,7.20
2019-04-28T02:32:46.827Z,7.10
2019-04-28T02:33:46.796Z,6.30
2019-04-28T02:34:46.785Z,7.00
2019-04-28T02:35:46.775Z,6.60
2019-04-28T02:36:46.763Z,6.30
2019-04-28T02:37:46.749Z,7.10
2019-04-28T02:38:46.749Z,6.30
2019-04-28T02:39:46.719Z,6.00
2019-04-28T02:40:46.723Z,7.70
2019-04-28T02:41:46.729Z,6.50
2019-04-28T02:42:46.712Z,7.20
2019-04-28T02:43:46.687Z,6.30
2019-04-28T02:44:46.716Z,7.20
2019-04-28T02:45:46.681Z,6.40
2019-04-28T02:46:46.676Z,6.70
2019-04-28T02:47:46.654Z,6.60
2019-04-28T02:48:46.663Z,6.80
2019-04-28T02:49:46.612Z,6.30
2019-04-28T02:50:46.608Z,6.20
2019-04-28T02:51:46.603Z,6.60
2019-04-28T02:52:46.582Z,6.60
2019-04-28T02:53:46.568Z,6.60
2019-04-28T02:54:46.582Z,5.80
2019-04-28T02:55:46.553Z,6.40
2019-04-28T02:56:46.551Z,6.20
2019-04-28T02:57:46.545Z,5.90
2019-04-28T02:58:46.535Z,6.50
2019-04-28T02:59:46.513Z,6.30
2019-04-28T03:01:00.819Z,6.00
2019-04-28T03:01:47.481Z,6.30
2019-04-28T03:02:46.493Z,6.40
2019-04-28T03:03:46.484Z,6.10
2019-04-28T03:04:46.485Z,6.00
2019-04-28T03:05:46.450Z,6.10
2019-04-28T03:06:46.431Z,5.80
2019-04-28T03:07:46.425Z,6.80
2019-04-28T03:08:46.432Z,6.60
2019-04-28T03:09:46.408Z,5.70
2019-04-28T03:10:46.395Z,6.10
2019-04-28T03:11:46.401Z,6.20
2019-04-28T03:12:46.372Z,5.80
2019-04-28T03:13:46.396Z,6.30
2019-04-28T03:14:46.354Z,6.00
2019-04-28T03:15:46.332Z,6.30
2019-04-28T03:16:46.334Z,5.60
2019-04-28T03:17:46.353Z,5.50
2019-04-28T03:18:46.321Z,6.00
2019-04-28T03:19:46.290Z,6.20
2019-04-28T03:20:46.293Z,6.00
2019-04-28T03:21:46.270Z,5.80
2019-04-28T03:22:46.272Z,6.80
2019-04-28T03:23:46.259Z,5.50
2019-04-28T03:24:46.264Z,6.30
2019-04-28T03:25:46.243Z,5.90
2019-04-28T03:26:46.233Z,6.10
2019-04-28T03:27:46.256Z,5.60
2019-04-28T03:28:46.201Z,6.00
2019-04-28T03:29:46.203Z,5.40
2019-04-28T03:30:46.205Z,6.10
2019-04-28T03:32:14.036Z,6.20
2019-04-28T03:32:53.609Z,6.10
2019-04-28T03:33:48.962Z,5.50
2019-04-28T03:34:47.123Z,6.30
2019-04-28T03:35:46.129Z,5.70
2019-04-28T03:36:46.118Z,6.00
2019-04-28T03:37:46.103Z,5.20
2019-04-28T03:38:46.089Z,5.60
2019-04-28T03:39:46.079Z,5.70
2019-04-28T03:40:46.060Z,5.30
2019-04-28T03:41:46.086Z,5.50
2019-04-28T03:42:46.051Z,5.70
2019-04-28T03:43:46.052Z,6.00
2019-04-28T03:44:46.041Z,5.50
2019-04-28T03:45:46.020Z,5.60
2019-04-28T03:46:46.051Z,5.60
2019-04-28T03:47:45.990Z,5.80
2019-04-28T03:48:45.977Z,5.50
2019-04-28T03:49:45.971Z,6.10
2019-04-28T03:50:46.000Z,5.80
2019-04-28T03:51:45.948Z,6.20
2019-04-28T03:52:45.962Z,5.80
2019-04-28T03:53:45.935Z,6.00
2019-04-28T03:54:45.941Z,5.50
2019-04-28T03:55:45.946Z,6.20
2019-04-28T03:56:45.889Z,6.10
2019-04-28T03:57:45.893Z,5.90
2019-04-28T03:58:45.904Z,5.70
2019-04-28T03:59:45.901Z,5.60
2019-04-28T04:00:45.870Z,5.60
2019-04-28T04:01:56.681Z,5.00
2019-04-28T04:02:46.851Z,5.80
2019-04-28T04:03:45.858Z,6.10
2019-04-28T04:04:45.824Z,5.50
2019-04-28T04:05:45.798Z,5.60
2019-04-28T04:06:45.806Z,5.60
2019-04-28T04:07:45.810Z,5.80
2019-04-28T04:08:45.778Z,6.10
2019-04-28T04:09:45.769Z,5.20
2019-04-28T04:10:45.739Z,5.40
2019-04-28T04:11:45.742Z,5.90
2019-04-28T04:12:45.728Z,5.80
2019-04-28T04:13:45.738Z,5.60
2019-04-28T04:14:45.700Z,5.60
2019-04-28T04:15:49.560Z,5.50
2019-04-28T04:16:46.679Z,6.10
2019-04-28T04:17:45.656Z,6.00
2019-04-28T04:18:45.678Z,6.10
2019-04-28T04:19:45.660Z,5.70
2019-04-28T04:20:45.650Z,5.70
2019-04-28T04:21:45.650Z,5.90
2019-04-28T04:22:45.621Z,6.40
2019-04-28T04:23:45.611Z,6.20
2019-04-28T04:24:45.597Z,5.80
2019-04-28T04:25:45.590Z,6.60
2019-04-28T04:26:45.568Z,5.70
2019-04-28T04:27:45.568Z,5.70
2019-04-28T04:28:45.559Z,5.80
2019-04-28T04:29:45.530Z,5.90
2019-04-28T04:30:45.545Z,5.80
2019-04-28T04:31:45.529Z,6.10
2019-04-28T04:32:45.519Z,5.90
2019-04-28T04:33:45.520Z,6.00
2019-04-28T04:34:45.493Z,5.90
2019-04-28T04:35:45.479Z,5.80
2019-04-28T04:36:45.457Z,5.70
2019-04-28T04:37:45.446Z,5.60
2019-04-28T04:38:46.404Z,6.20
2019-04-28T04:39:45.438Z,5.60
2019-04-28T04:40:45.439Z,5.80
2019-04-28T04:41:45.418Z,5.90
2019-04-28T04:42:45.408Z,6.30
2019-04-28T04:43:45.396Z,5.90
2019-04-28T04:44:45.385Z,5.70
2019-04-28T04:45:45.377Z,5.90
2019-04-28T04:46:45.362Z,5.10
2019-04-28T04:47:45.345Z,5.80
2019-04-28T04:48:45.346Z,5.80
2019-04-28T04:49:45.326Z,6.40
2019-04-28T04:50:45.312Z,5.40
2019-04-28T04:51:45.295Z,6.00
2019-04-28T04:52:45.284Z,5.80
2019-04-28T04:53:45.299Z,5.70
2019-04-28T04:54:45.268Z,5.30
2019-04-28T04:55:45.267Z,5.90
2019-04-28T04:56:45.247Z,5.50
2019-04-28T04:57:45.238Z,5.60
2019-04-28T04:58:45.227Z,5.30
2019-04-28T04:59:45.246Z,5.50
2019-04-28T05:00:45.204Z,5.80
2019-04-28T05:01:45.193Z,5.80
2019-04-28T05:02:51.578Z,5.80
2019-04-28T05:03:46.164Z,5.90
2019-04-28T05:04:45.164Z,6.00
2019-04-28T05:05:45.155Z,5.90
2019-04-28T05:06:45.138Z,5.60
2019-04-28T05:07:45.123Z,5.60
2019-04-28T05:08:45.116Z,5.60
2019-04-28T05:09:45.126Z,5.20
2019-04-28T05:10:45.106Z,5.20
2019-04-28T05:11:45.084Z,5.40
2019-04-28T05:12:45.077Z,5.40
2019-04-28T05:13:45.066Z,5.80
2019-04-28T05:14:45.056Z,5.30
2019-04-28T05:15:45.054Z,5.10
2019-04-28T05:16:45.036Z,4.90
2019-04-28T05:17:45.014Z,5.30
2019-04-28T05:18:45.015Z,5.10
2019-04-28T05:19:45.003Z,5.30
2019-04-28T05:20:45.010Z,5.30
2019-04-28T05:21:44.962Z,5.70
2019-04-28T05:22:44.956Z,5.80
2019-04-28T05:23:44.952Z,5.90
2019-04-28T05:24:46.143Z,5.70
2019-04-28T05:25:45.952Z,5.70
2019-04-28T05:26:47.685Z,5.50
2019-04-28T05:27:44.914Z,5.60
2019-04-28T05:28:51.420Z,5.60
2019-04-28T05:29:45.904Z,5.10
2019-04-28T05:30:44.895Z,5.40
2019-04-28T05:31:44.883Z,5.40
2019-04-28T05:32:49.603Z,5.90
2019-04-28T05:33:45.854Z,6.00
2019-04-28T05:34:46.450Z,5.50
2019-04-28T05:35:44.846Z,5.30
2019-04-28T05:36:44.923Z,5.00
2019-04-28T05:37:45.062Z,5.40
2019-04-28T05:38:44.791Z,4.90
2019-04-28T05:39:44.782Z,5.20
2019-04-28T05:40:44.811Z,5.60
2019-04-28T05:41:44.774Z,5.90
2019-04-28T05:42:44.756Z,5.40
2019-04-28T05:43:44.739Z,5.10
2019-04-28T05:44:44.724Z,5.20
2019-04-28T05:45:44.734Z,5.00
2019-04-28T05:46:44.723Z,4.90
2019-04-28T05:47:44.712Z,4.80
2019-04-28T05:48:44.694Z,5.10
2019-04-28T05:49:44.700Z,5.60
2019-04-28T05:50:44.676Z,4.60
2019-04-28T05:51:44.661Z,5.30
2019-04-28T05:52:44.642Z,5.30
2019-04-28T05:53:44.667Z,5.00
2019-04-28T05:54:44.653Z,5.20
2019-04-28T05:55:44.623Z,5.10
2019-04-28T05:56:44.612Z,5.20
2019-04-28T05:57:44.609Z,5.30
2019-04-28T05:58:44.583Z,4.90
2019-04-28T05:59:44.574Z,5.30
2019-04-28T06:00:44.570Z,5.00
2019-04-28T06:01:44.554Z,5.10
2019-04-28T06:02:55.587Z,5.20
2019-04-28T06:03:45.512Z,4.90
2019-04-28T06:04:44.524Z,5.20
2019-04-28T06:05:44.519Z,4.70
2019-04-28T06:06:44.489Z,4.80
2019-04-28T06:07:44.481Z,5.40
2019-04-28T06:08:44.480Z,5.10
2019-04-28T06:09:44.462Z,5.40
2019-04-28T06:10:44.452Z,5.20
2019-04-28T06:11:44.471Z,5.30
2019-04-28T06:12:44.429Z,5.10
2019-04-28T06:13:44.422Z,4.80
2019-04-28T06:14:44.441Z,5.40
2019-04-28T06:15:44.387Z,5.40
2019-04-28T06:16:44.380Z,5.20
2019-04-28T06:17:44.396Z,4.30
2019-04-28T06:18:44.348Z,4.80
2019-04-28T06:19:44.369Z,4.90
2019-04-28T06:20:44.359Z,4.60
2019-04-28T06:21:44.338Z,4.70
2019-04-28T06:22:44.318Z,5.10
2019-04-28T06:23:44.332Z,4.90
2019-04-28T06:24:44.391Z,5.10
2019-04-28T06:25:44.370Z,5.60
2019-04-28T06:26:44.280Z,5.10
2019-04-28T06:27:44.280Z,5.10
2019-04-28T06:28:44.289Z,4.90
2019-04-28T06:29:44.240Z,4.80
2019-04-28T06:30:44.224Z,5.00
2019-04-28T06:31:44.235Z,5.20
2019-04-28T06:32:44.221Z,5.30
2019-04-28T06:33:44.540Z,5.30
2019-04-28T06:34:44.211Z,4.50
2019-04-28T06:35:44.270Z,4.80
2019-04-28T06:36:44.157Z,4.90
2019-04-28T06:37:44.169Z,5.20
2019-04-28T06:38:44.235Z,5.00
2019-04-28T06:39:47.109Z,5.00
2019-04-28T06:40:44.120Z,4.80
2019-04-28T06:41:44.127Z,5.30
2019-04-28T06:42:44.097Z,4.70
2019-04-28T06:43:44.093Z,5.40
2019-04-28T06:44:44.167Z,4.70
2019-04-28T06:45:44.109Z,4.80
2019-04-28T06:46:44.067Z,4.80
2019-04-28T06:47:44.128Z,4.80
2019-04-28T06:48:44.079Z,5.00
2019-04-28T06:49:44.042Z,5.20
2019-04-28T06:50:44.252Z,5.50
2019-04-28T06:51:44.052Z,5.20
2019-04-28T06:52:44.010Z,5.30
2019-04-28T06:53:44.035Z,5.20
2019-04-28T06:54:44.074Z,4.90
2019-04-28T06:55:44.016Z,5.40
2019-04-28T06:56:43.958Z,5.60
2019-04-28T06:57:44.198Z,5.10
2019-04-28T06:58:43.936Z,4.50
2019-04-28T06:59:44.035Z,5.00
2019-04-28T07:00:43.998Z,5.00
2019-04-28T07:01:43.920Z,5.70
2019-04-28T07:02:44.011Z,5.10
2019-04-28T07:03:43.879Z,4.90
2019-04-28T07:04:43.966Z,4.90
2019-04-28T07:05:43.884Z,4.80
2019-04-28T07:06:44.235Z,5.00
2019-04-28T07:07:43.858Z,5.60
2019-04-28T07:08:43.847Z,5.10
2019-04-28T07:09:43.810Z,4.80
2019-04-28T07:10:43.913Z,5.60
2019-04-28T07:11:43.898Z,5.40
2019-04-28T07:12:43.875Z,5.40
2019-04-28T07:13:43.865Z,4.90
2019-04-28T07:14:43.825Z,5.40
2019-04-28T07:15:43.758Z,5.20
2019-04-28T07:16:43.759Z,4.50
2019-04-28T07:17:43.717Z,4.70
2019-04-28T07:18:43.707Z,5.50
2019-04-28T07:19:43.707Z,5.00
2019-04-28T07:20:43.706Z,5.50
2019-04-28T07:21:43.679Z,4.90
2019-04-28T07:22:43.675Z,5.00
2019-04-28T07:23:43.657Z,5.00
2019-04-28T07:24:44.974Z,5.20
2019-04-28T07:25:43.646Z,5.40
2019-04-28T07:26:43.631Z,6.40
2019-04-28T07:27:43.627Z,5.30
2019-04-28T07:28:43.603Z,5.30
2019-04-28T07:29:43.582Z,5.50
2019-04-28T07:30:43.616Z,5.70
2019-04-28T07:31:43.694Z,6.00
2019-04-28T07:32:43.577Z,5.40
2019-04-28T07:33:43.558Z,5.90
2019-04-28T07:34:43.567Z,6.00
2019-04-28T07:35:43.542Z,6.20
2019-04-28T07:36:43.513Z,5.70
2019-04-28T07:37:43.528Z,6.30
2019-04-28T07:38:43.517Z,6.80
2019-04-28T07:39:43.487Z,6.50
2019-04-28T07:40:43.498Z,7.30
2019-04-28T07:41:43.465Z,7.50
2019-04-28T07:42:43.497Z,7.70
2019-04-28T07:43:43.445Z,7.60
2019-04-28T07:44:43.448Z,7.80
2019-04-28T07:45:43.429Z,7.60
2019-04-28T07:46:43.405Z,7.80
2019-04-28T07:47:43.394Z,7.90
2019-04-28T07:48:43.386Z,8.40
2019-04-28T07:49:43.385Z,8.40
2019-04-28T07:50:43.364Z,9.20
2019-04-28T07:51:43.358Z,8.80
2019-04-28T07:52:43.356Z,8.40
2019-04-28T07:53:43.331Z,8.30
2019-04-28T07:54:43.333Z,8.10
2019-04-28T07:55:43.312Z,9.30
2019-04-28T07:56:43.292Z,10.10
2019-04-28T07:57:43.315Z,10.70
2019-04-28T07:58:43.285Z,10.10
2019-04-28T07:59:43.262Z,9.40
2019-04-28T08:00:43.276Z,9.60
2019-04-28T08:01:43.243Z,9.90
2019-04-28T08:02:43.236Z,9.80
2019-04-28T08:03:49.812Z,8.80
2019-04-28T08:04:44.212Z,8.60
2019-04-28T08:05:43.214Z,8.40
2019-04-28T08:06:43.205Z,9.20
2019-04-28T08:07:43.178Z,9.00
2019-04-28T08:08:43.178Z,9.30
2019-04-28T08:09:43.299Z,9.00
2019-04-28T08:10:43.163Z,9.20
2019-04-28T08:11:43.131Z,8.80
2019-04-28T08:12:43.146Z,9.40
2019-04-28T08:13:43.102Z,8.90
2019-04-28T08:14:43.326Z,7.90
2019-04-28T08:15:43.084Z,7.20
2019-04-28T08:16:43.113Z,7.50
2019-04-28T08:17:43.083Z,7.30
2019-04-28T08:18:43.065Z,6.90
2019-04-28T08:19:43.054Z,7.20
2019-04-28T08:20:43.044Z,7.10
2019-04-28T08:21:43.044Z,7.00
2019-04-28T08:22:43.038Z,7.00
2019-04-28T08:23:47.227Z,6.60
2019-04-28T08:24:42.990Z,6.80
2019-04-28T08:25:42.985Z,6.50
2019-04-28T08:26:42.973Z,6.20
2019-04-28T08:27:42.974Z,6.40
2019-04-28T08:28:42.959Z,6.20
2019-04-28T08:29:42.980Z,6.30
2019-04-28T08:30:42.948Z,6.10
2019-04-28T08:31:43.113Z,6.10
2019-04-28T08:32:42.903Z,5.60
2019-04-28T08:33:42.910Z,5.10
2019-04-28T08:34:42.885Z,5.50
2019-04-28T08:35:42.894Z,4.60
2019-04-28T08:36:42.872Z,4.80
2019-04-28T08:37:42.857Z,4.80
2019-04-28T08:38:42.846Z,5.00
2019-04-28T08:39:42.858Z,4.70
2019-04-28T08:40:42.863Z,3.90
2019-04-28T08:41:42.814Z,4.30
2019-04-28T08:42:42.813Z,3.80
2019-04-28T08:43:42.782Z,3.70
2019-04-28T08:44:42.786Z,3.40
2019-04-28T08:45:42.806Z,3.10
2019-04-28T08:46:42.789Z,2.80
2019-04-28T08:47:42.761Z,3.20
2019-04-28T08:48:42.743Z,3.30
2019-04-28T08:49:42.734Z,3.30
2019-04-28T08:50:42.765Z,3.50
2019-04-28T08:51:42.725Z,3.20
2019-04-28T08:52:42.713Z,3.10
2019-04-28T08:53:42.683Z,2.90
2019-04-28T08:54:42.674Z,2.80
2019-04-28T08:55:42.663Z,2.60
2019-04-28T08:56:42.651Z,2.90
2019-04-28T08:57:42.650Z,2.80
2019-04-28T08:58:42.645Z,2.90
2019-04-28T08:59:42.620Z,2.60
2019-04-28T09:00:42.612Z,2.70
2019-04-28T09:01:42.600Z,3.40
2019-04-28T09:02:42.591Z,2.50
2019-04-28T09:03:42.598Z,2.60
2019-04-28T09:04:42.564Z,2.90
2019-04-28T09:05:42.573Z,3.10
2019-04-28T09:06:42.531Z,2.70
2019-04-28T09:07:42.560Z,2.80
2019-04-28T09:08:42.560Z,2.80
2019-04-28T09:09:42.511Z,2.80
2019-04-28T09:10:42.503Z,3.30
2019-04-28T09:11:42.615Z,2.80
2019-04-28T09:12:42.512Z,2.90
2019-04-28T09:13:43.981Z,3.50
2019-04-28T09:14:42.678Z,3.60
2019-04-28T09:15:42.480Z,4.10
2019-04-28T09:16:42.475Z,3.90
2019-04-28T09:17:42.433Z,3.80
2019-04-28T09:18:42.413Z,6.50
2019-04-28T09:19:42.606Z,3.40
2019-04-28T09:20:42.402Z,3.40
2019-04-28T09:21:42.389Z,3.30
2019-04-28T09:22:42.370Z,3.50
2019-04-28T09:23:42.389Z,3.20
2019-04-28T09:24:42.354Z,3.60
2019-04-28T09:25:42.339Z,3.40
2019-04-28T09:26:42.319Z,3.40
2019-04-28T09:27:42.320Z,3.50
2019-04-28T09:28:42.332Z,3.80
2019-04-28T09:29:42.332Z,3.20
2019-04-28T09:30:42.280Z,3.30
2019-04-28T09:31:42.271Z,3.40
2019-04-28T09:32:42.273Z,3.60
2019-04-28T09:33:42.241Z,3.50
2019-04-28T09:34:42.331Z,3.70
2019-04-28T09:35:43.152Z,4.10
2019-04-28T09:36:42.222Z,4.00
2019-04-28T09:37:42.254Z,3.70
2019-04-28T09:38:42.789Z,4.50
2019-04-28T09:39:42.189Z,4.40
2019-04-28T09:40:42.181Z,5.00
2019-04-28T09:41:43.251Z,5.10
2019-04-28T09:42:42.165Z,4.90
2019-04-28T09:43:42.214Z,4.80
2019-04-28T09:44:42.371Z,5.10
2019-04-28T09:45:42.129Z,5.10
2019-04-28T09:46:42.110Z,5.00
2019-04-28T09:47:42.101Z,5.00
2019-04-28T09:48:42.091Z,4.80
2019-04-28T09:49:42.081Z,4.60
2019-04-28T09:50:42.112Z,4.80
2019-04-28T09:51:42.071Z,4.90
2019-04-28T09:52:42.058Z,4.40
2019-04-28T09:53:42.042Z,4.60
2019-04-28T09:54:42.020Z,4.50
2019-04-28T09:55:42.012Z,5.40
2019-04-28T09:56:42.010Z,5.20
2019-04-28T09:57:42.309Z,5.50
2019-04-28T09:58:41.981Z,5.70
2019-04-28T09:59:41.981Z,5.50
2019-04-28T10:00:41.969Z,6.20
2019-04-28T10:01:41.971Z,5.70
2019-04-28T10:02:41.950Z,6.10
2019-04-28T10:03:41.939Z,5.20
2019-04-28T10:04:42.417Z,5.40
2019-04-28T10:05:41.911Z,6.00
2019-04-28T10:06:41.926Z,5.70
2019-04-28T10:07:41.919Z,6.00
2019-04-28T10:08:42.760Z,5.80
2019-04-28T10:09:41.924Z,5.60
2019-04-28T10:10:41.861Z,5.50
2019-04-28T10:11:41.851Z,5.50
2019-04-28T10:12:41.845Z,6.10
2019-04-28T10:13:41.827Z,6.10
2019-04-28T10:14:41.819Z,5.70
2019-04-28T10:15:41.800Z,6.40
2019-04-28T10:16:41.791Z,6.30
2019-04-28T10:17:41.780Z,6.60
2019-04-28T10:18:42.093Z,6.80
2019-04-28T10:21:09.850Z,6.80
2019-04-28T10:22:06.992Z,6.80
2019-04-28T10:23:06.760Z,7.20
2019-04-28T10:24:06.720Z,7.60
2019-04-28T10:25:06.772Z,8.00
2019-04-28T10:26:06.692Z,7.50
2019-04-28T10:27:10.172Z,7.20
2019-04-28T10:28:07.068Z,8.30
2019-04-28T10:29:06.811Z,9.50
2019-04-28T10:30:07.665Z,9.00
2019-04-28T10:31:06.914Z,9.40
2019-04-28T10:32:06.669Z,9.70
2019-04-28T10:33:06.718Z,9.20
2019-04-28T10:34:06.720Z,9.30
2019-04-28T10:35:06.733Z,9.40
2019-04-28T10:36:06.556Z,9.40
2019-04-28T10:37:06.991Z,9.40
2019-04-28T10:38:06.699Z,9.30
2019-04-28T10:39:07.095Z,10.10
2019-04-28T10:40:06.918Z,11.10
2019-04-28T10:41:06.641Z,11.00
2019-04-28T10:42:07.202Z,9.70
2019-04-28T10:43:06.470Z,9.20
2019-04-28T10:44:08.600Z,10.00
2019-04-28T10:45:06.943Z,9.80
2019-04-28T10:46:06.909Z,10.00
2019-04-28T10:47:12.002Z,11.20
2019-04-28T10:49:38.304Z,10.50
2019-04-28T10:51:18.542Z,10.70
2019-04-28T10:51:39.187Z,10.00
2019-04-28T10:52:37.913Z,10.60
2019-04-28T10:53:37.671Z,11.20
2019-04-28T10:54:37.671Z,10.90
2019-04-28T10:55:37.782Z,11.30
2019-04-28T10:56:37.511Z,11.60
2019-04-28T10:57:37.694Z,11.80
2019-04-28T10:58:38.573Z,11.90
2019-04-28T10:59:37.684Z,11.60
2019-04-28T11:00:38.542Z,11.90
2019-04-28T11:01:38.013Z,11.90
2019-04-28T11:02:37.749Z,12.80
2019-04-28T11:03:37.774Z,12.20
2019-04-28T11:04:37.711Z,13.60
2019-04-28T11:05:37.722Z,14.30
2019-04-28T11:06:37.611Z,14.20
2019-04-28T11:07:38.975Z,14.40
2019-04-28T11:08:38.159Z,13.20
2019-04-28T11:09:37.410Z,13.10
2019-04-28T11:10:37.383Z,11.50
2019-04-28T11:11:37.361Z,11.90
2019-04-28T11:12:37.358Z,12.40
2019-04-28T11:13:37.349Z,12.30
2019-04-28T11:14:37.336Z,11.70
2019-04-28T11:15:37.345Z,10.80
2019-04-28T11:16:37.314Z,11.60
2019-04-28T11:17:37.535Z,11.50
2019-04-28T11:18:37.284Z,12.10
2019-04-28T11:19:37.294Z,10.80
2019-04-28T11:20:37.266Z,12.10
2019-04-28T11:21:37.284Z,12.40
2019-04-28T11:22:37.245Z,12.10
2019-04-28T11:23:37.239Z,11.90
2019-04-28T11:24:37.226Z,11.00
2019-04-28T11:25:37.205Z,10.80
2019-04-28T11:26:37.888Z,10.40
2019-04-28T11:27:37.182Z,10.40
2019-04-28T11:28:37.917Z,9.50
2019-04-28T11:29:37.152Z,9.50
2019-04-28T11:30:37.143Z,9.40
2019-04-28T11:31:37.145Z,9.50
2019-04-28T11:32:37.122Z,8.80
2019-04-28T11:33:37.125Z,9.30
2019-04-28T11:34:37.118Z,9.50
2019-04-28T11:35:37.105Z,9.30
2019-04-28T11:36:37.123Z,9.20
2019-04-28T11:37:37.072Z,9.80
2019-04-28T11:38:37.063Z,10.20
2019-04-28T11:39:37.122Z,8.90
2019-04-28T11:40:37.032Z,8.60
2019-04-28T11:41:37.035Z,8.30
2019-04-28T11:42:37.032Z,8.80
2019-04-28T11:43:37.146Z,9.10
2019-04-28T11:44:37.004Z,8.30
2019-04-28T11:45:36.994Z,8.40
2019-04-28T11:46:36.972Z,7.90
2019-04-28T11:47:36.987Z,7.70
2019-04-28T11:48:36.955Z,7.70
2019-04-28T11:49:36.943Z,7.40
2019-04-28T11:50:36.922Z,7.00
2019-04-28T11:51:36.964Z,7.20
2019-04-28T11:52:37.087Z,7.80
2019-04-28T11:53:36.890Z,7.40
2019-04-28T11:54:36.882Z,7.30
2019-04-28T11:55:36.884Z,8.00
2019-04-28T11:56:41.616Z,8.30
2019-04-28T11:57:37.864Z,7.60
2019-04-28T11:58:36.843Z,8.30
2019-04-28T11:59:37.333Z,7.00
2019-04-28T12:00:36.951Z,7.20
2019-04-28T12:01:36.853Z,7.40
2019-04-28T12:02:36.806Z,6.80
2019-04-28T12:03:36.829Z,7.00
2019-04-28T12:04:36.773Z,7.20
2019-04-28T12:05:38.402Z,7.30
2019-04-28T12:06:36.765Z,7.70
2019-04-28T12:07:36.742Z,7.50
2019-04-28T12:08:36.911Z,7.00
2019-04-28T12:09:36.892Z,6.90
2019-04-28T12:10:36.712Z,7.60
2019-04-28T12:11:36.787Z,7.50
2019-04-28T12:12:36.705Z,7.50
2019-04-28T12:13:36.693Z,7.50
2019-04-28T12:14:36.703Z,7.40
2019-04-28T12:15:36.663Z,7.90
2019-04-28T12:16:36.644Z,6.70
2019-04-28T12:17:36.661Z,7.00
2019-04-28T12:18:36.624Z,7.30
2019-04-28T12:19:36.643Z,6.90
2019-04-28T12:20:36.613Z,7.30
2019-04-28T12:21:36.791Z,7.10
2019-04-28T12:22:36.631Z,7.30
2019-04-28T12:23:36.583Z,7.60
2019-04-28T12:24:36.552Z,6.80
2019-04-28T12:25:36.561Z,6.80
2019-04-28T12:26:36.531Z,7.00
2019-04-28T12:27:36.572Z,6.80
2019-04-28T12:28:36.524Z,6.70
2019-04-28T12:29:36.607Z,7.00
2019-04-28T12:30:36.495Z,7.20
2019-04-28T12:31:36.555Z,7.30
2019-04-28T12:32:36.461Z,7.20
2019-04-28T12:33:36.466Z,7.00
2019-04-28T12:34:36.472Z,7.10
2019-04-28T12:35:47.279Z,6.50
2019-04-28T12:36:37.423Z,7.10
2019-04-28T12:37:36.410Z,6.80
2019-04-28T12:38:36.466Z,6.90
2019-04-28T12:39:36.412Z,7.20
2019-04-28T12:40:36.384Z,7.50
2019-04-28T12:41:36.374Z,6.70
2019-04-28T12:42:36.351Z,6.80
2019-04-28T12:43:36.347Z,6.60
2019-04-28T12:44:36.340Z,6.10
2019-04-28T12:45:36.412Z,6.60
2019-04-28T12:46:36.314Z,6.60
2019-04-28T12:47:36.321Z,6.20
2019-04-28T12:48:36.307Z,6.10
2019-04-28T12:49:36.282Z,6.30
2019-04-28T12:50:36.261Z,6.30
2019-04-28T12:51:36.385Z,6.10
2019-04-28T12:52:36.273Z,6.50
2019-04-28T12:53:36.254Z,6.40
2019-04-28T12:54:36.238Z,6.50
2019-04-28T12:55:36.236Z,6.60
2019-04-28T12:56:36.233Z,6.50
2019-04-28T12:57:36.193Z,6.10
2019-04-28T12:58:36.435Z,6.40
2019-04-28T12:59:36.171Z,6.00
2019-04-28T13:00:36.168Z,6.10
2019-04-28T13:01:36.144Z,6.20
2019-04-28T13:02:36.142Z,6.00
2019-04-28T13:03:36.136Z,5.90
2019-04-28T13:04:36.111Z,6.40
2019-04-28T13:05:36.113Z,6.50
2019-04-28T13:06:36.103Z,6.30
2019-04-28T13:07:36.095Z,6.30
2019-04-28T13:08:36.098Z,6.20
2019-04-28T13:09:36.061Z,6.30
2019-04-28T13:10:36.064Z,6.50
2019-04-28T13:11:36.033Z,6.20
2019-04-28T13:12:36.045Z,6.20
2019-04-28T13:13:36.012Z,6.30
2019-04-28T13:14:36.025Z,6.20
2019-04-28T13:15:36.002Z,6.50
2019-04-28T13:16:36.014Z,6.60